sensor_id;sensor_type;location;lat;lon;timestamp;pressure;altitude;pressure_sealevel;temperature;humidity
12475;BME280;6302;42.624;23.334;2022-07-06T00:00:11;93262.91;;;19.85;100.00
12475;BME280;6302;42.624;23.334;2022-07-06T00:02:37;93265.03;;;19.81;100.00
12475;BME280;6302;42.624;23.334;2022-07-06T00:05:05;93262.94;;;19.76;100.00
12475;BME280;6302;42.624;23.334;2022-07-06T00:07:32;93269.22;;;19.73;100.00
12475;BME280;6302;42.624;23.334;2022-07-06T00:09:59;93281.47;;;19.74;100.00
12475;BME280;6302;42.624;23.334;2022-07-06T00:12:27;93284.00;;;19.78;100.00
12475;BME280;6302;42.624;23.334;2022-07-06T00:14:53;93298.66;;;19.59;100.00
12475;BME280;6302;42.624;23.334;2022-07-06T00:17:20;93302.69;;;19.45;100.00
12475;BME280;6302;42.624;23.334;2022-07-06T00:19:47;93306.97;;;19.24;100.00
12475;BME280;6302;42.624;23.334;2022-07-06T00:22:14;93320.41;;;19.33;100.00
12475;BME280;6302;42.624;23.334;2022-07-06T00:24:41;93320.56;;;19.30;100.00
12475;BME280;6302;42.624;23.334;2022-07-06T00:27:07;93325.94;;;19.30;100.00
12475;BME280;6302;42.624;23.334;2022-07-06T00:29:36;93286.63;;;19.05;100.00
12475;BME280;6302;42.624;23.334;2022-07-06T00:32:03;93337.09;;;19.28;100.00
12475;BME280;6302;42.624;23.334;2022-07-06T00:34:30;93334.25;;;19.14;100.00
12475;BME280;6302;42.624;23.334;2022-07-06T00:36:56;93339.63;;;19.14;100.00
12475;BME280;6302;42.624;23.334;2022-07-06T00:39:23;93330.03;;;19.04;100.00
12475;BME280;6302;42.624;23.334;2022-07-06T00:41:54;93304.16;;;18.79;100.00
12475;BME280;6302;42.624;23.334;2022-07-06T00:44:21;93343.63;;;19.09;100.00
12475;BME280;6302;42.624;23.334;2022-07-06T00:46:49;93330.66;;;19.17;100.00
12475;BME280;6302;42.624;23.334;2022-07-06T00:49:16;93342.47;;;19.19;100.00
12475;BME280;6302;42.624;23.334;2022-07-06T00:51:57;93338.91;;;19.22;100.00
12475;BME280;6302;42.624;23.334;2022-07-06T00:54:25;93335.16;;;19.20;100.00
12475;BME280;6302;42.624;23.334;2022-07-06T00:56:53;93325.31;;;19.17;100.00
12475;BME280;6302;42.624;23.334;2022-07-06T00:59:20;93323.97;;;19.21;100.00
12475;BME280;6302;42.624;23.334;2022-07-06T01:01:46;93319.94;;;19.26;100.00
12475;BME280;6302;42.624;23.334;2022-07-06T01:04:15;93318.88;;;19.23;100.00
12475;BME280;6302;42.624;23.334;2022-07-06T01:06:41;93302.34;;;19.25;100.00
12475;BME280;6302;42.624;23.334;2022-07-06T01:09:09;93298.31;;;19.29;100.00
12475;BME280;6302;42.624;23.334;2022-07-06T01:11:36;93265.75;;;19.18;100.00
12475;BME280;6302;42.624;23.334;2022-07-06T01:14:03;93286.97;;;19.34;100.00
12475;BME280;6302;42.624;23.334;2022-07-06T01:16:30;93232.75;;;19.00;100.00
12475;BME280;6302;42.624;23.334;2022-07-06T01:18:57;93293.41;;;19.37;100.00
12475;BME280;6302;42.624;23.334;2022-07-06T01:21:26;93288.03;;;19.37;100.00
12475;BME280;6302;42.624;23.334;2022-07-06T01:23:52;93289.66;;;19.34;100.00
12475;BME280;6302;42.624;23.334;2022-07-06T01:26:20;93291.63;;;19.43;100.00
12475;BME280;6302;42.624;23.334;2022-07-06T01:28:49;93296.09;;;19.46;100.00
12475;BME280;6302;42.624;23.334;2022-07-06T01:31:18;93302.09;;;19.50;100.00
12475;BME280;6302;42.624;23.334;2022-07-06T01:33:45;93300.88;;;19.51;100.00
12475;BME280;6302;42.624;23.334;2022-07-06T01:36:12;93298.66;;;19.40;100.00
12475;BME280;6302;42.624;23.334;2022-07-06T01:38:47;93293.09;;;19.35;100.00
12475;BME280;6302;42.624;23.334;2022-07-06T01:41:14;93286.69;;;19.32;100.00
12475;BME280;6302;42.624;23.334;2022-07-06T01:43:42;93232.91;;;18.96;100.00
12475;BME280;6302;42.624;23.334;2022-07-06T01:46:09;93290.38;;;19.26;100.00
12475;BME280;6302;42.624;23.334;2022-07-06T01:48:35;93294.88;;;19.20;100.00
12475;BME280;6302;42.624;23.334;2022-07-06T01:51:02;93274.38;;;18.95;100.00
12475;BME280;6302;42.624;23.334;2022-07-06T01:53:29;93293.88;;;18.87;100.00
12475;BME280;6302;42.624;23.334;2022-07-06T01:55:58;93297.63;;;18.89;100.00
12475;BME280;6302;42.624;23.334;2022-07-06T01:58:25;93286.22;;;18.67;100.00
12475;BME280;6302;42.624;23.334;2022-07-06T02:00:51;93310.28;;;18.79;100.00
12475;BME280;6302;42.624;23.334;2022-07-06T02:03:18;93316.28;;;18.83;100.00
12475;BME280;6302;42.624;23.334;2022-07-06T02:05:45;93315.66;;;18.79;100.00
12475;BME280;6302;42.624;23.334;2022-07-06T02:08:12;93317.16;;;18.80;100.00
12475;BME280;6302;42.624;23.334;2022-07-06T02:10:38;93311.63;;;18.84;100.00
12475;BME280;6302;42.624;23.334;2022-07-06T02:13:07;93301.47;;;18.79;100.00
12475;BME280;6302;42.624;23.334;2022-07-06T02:15:33;93308.81;;;18.88;100.00
12475;BME280;6302;42.624;23.334;2022-07-06T02:18:00;93311.34;;;18.82;100.00
12475;BME280;6302;42.624;23.334;2022-07-06T02:20:27;93312.38;;;18.84;100.00
12475;BME280;6302;42.624;23.334;2022-07-06T02:22:54;93295.81;;;18.77;100.00
12475;BME280;6302;42.624;23.334;2022-07-06T02:25:21;93305.38;;;18.87;100.00
12475;BME280;6302;42.624;23.334;2022-07-06T02:27:48;93310.94;;;18.93;100.00
12475;BME280;6302;42.624;23.334;2022-07-06T02:30:16;93307.38;;;18.96;100.00
12475;BME280;6302;42.624;23.334;2022-07-06T02:32:43;93299.44;;;19.01;100.00
12475;BME280;6302;42.624;23.334;2022-07-06T02:35:09;93299.44;;;19.01;100.00
12475;BME280;6302;42.624;23.334;2022-07-06T02:37:37;93297.81;;;19.04;100.00
12475;BME280;6302;42.624;23.334;2022-07-06T02:40:05;93293.81;;;19.08;100.00
12475;BME280;6302;42.624;23.334;2022-07-06T02:42:32;93296.03;;;19.10;100.00
12475;BME280;6302;42.624;23.334;2022-07-06T02:44:59;93296.50;;;19.08;100.00
12475;BME280;6302;42.624;23.334;2022-07-06T02:47:27;93247.78;;;18.70;100.00
12475;BME280;6302;42.624;23.334;2022-07-06T02:49:54;93293.94;;;19.05;100.00
12475;BME280;6302;42.624;23.334;2022-07-06T02:52:21;93302.28;;;19.07;100.00
12475;BME280;6302;42.624;23.334;2022-07-06T02:54:48;93306.03;;;19.09;100.00
12475;BME280;6302;42.624;23.334;2022-07-06T02:57:15;93309.94;;;19.08;100.00
12475;BME280;6302;42.624;23.334;2022-07-06T02:59:42;93302.28;;;19.07;100.00
12475;BME280;6302;42.624;23.334;2022-07-06T03:02:09;93240.75;;;18.63;100.00
12475;BME280;6302;42.624;23.334;2022-07-06T03:04:38;93256.28;;;18.77;100.00
12475;BME280;6302;42.624;23.334;2022-07-06T03:07:04;93284.38;;;18.95;100.00
12475;BME280;6302;42.624;23.334;2022-07-06T03:09:31;93304.22;;;19.06;100.00
12475;BME280;6302;42.624;23.334;2022-07-06T03:11:58;93271.22;;;18.88;100.00
12475;BME280;6302;42.624;23.334;2022-07-06T03:14:25;93294.53;;;19.00;100.00
12475;BME280;6302;42.624;23.334;2022-07-06T03:16:52;93299.78;;;19.03;100.00
12475;BME280;6302;42.624;23.334;2022-07-06T03:19:19;93305.84;;;18.95;100.00
12475;BME280;6302;42.624;23.334;2022-07-06T03:21:47;93308.72;;;19.00;100.00
12475;BME280;6302;42.624;23.334;2022-07-06T03:24:14;93304.97;;;18.98;100.00
12475;BME280;6302;42.624;23.334;2022-07-06T03:26:41;93313.91;;;18.95;100.00
12475;BME280;6302;42.624;23.334;2022-07-06T03:29:08;93323.16;;;18.94;100.00
12475;BME280;6302;42.624;23.334;2022-07-06T03:31:34;93327.34;;;18.95;100.00
12475;BME280;6302;42.624;23.334;2022-07-06T03:34:01;93327.22;;;18.98;100.00
12475;BME280;6302;42.624;23.334;2022-07-06T03:36:28;93322.56;;;18.99;100.00
12475;BME280;6302;42.624;23.334;2022-07-06T03:38:56;93328.69;;;18.99;100.00
12475;BME280;6302;42.624;23.334;2022-07-06T03:41:23;93331.06;;;18.97;100.00
12475;BME280;6302;42.624;23.334;2022-07-06T03:43:50;93279.81;;;18.64;100.00
12475;BME280;6302;42.624;23.334;2022-07-06T03:46:16;93339.59;;;18.96;100.00
12475;BME280;6302;42.624;23.334;2022-07-06T03:48:43;93333.75;;;18.97;100.00
12475;BME280;6302;42.624;23.334;2022-07-06T03:51:10;93336.31;;;19.01;100.00
12475;BME280;6302;42.624;23.334;2022-07-06T03:53:37;93337.50;;;19.09;100.00
12475;BME280;6302;42.624;23.334;2022-07-06T03:56:05;93342.56;;;18.98;100.00
12475;BME280;6302;42.624;23.334;2022-07-06T03:58:49;93329.72;;;18.93;100.00
12475;BME280;6302;42.624;23.334;2022-07-06T04:01:19;93332.09;;;18.91;100.00
12475;BME280;6302;42.624;23.334;2022-07-06T04:03:46;93307.00;;;18.75;100.00
12475;BME280;6302;42.624;23.334;2022-07-06T04:06:13;93327.50;;;19.00;100.00
12475;BME280;6302;42.624;23.334;2022-07-06T04:08:39;93330.50;;;19.11;100.00
12475;BME280;6302;42.624;23.334;2022-07-06T04:11:08;93342.47;;;19.19;100.00
12475;BME280;6302;42.624;23.334;2022-07-06T04:13:34;93339.66;;;19.32;100.00
12475;BME280;6302;42.624;23.334;2022-07-06T04:16:02;93347.16;;;19.37;100.00
12475;BME280;6302;42.624;23.334;2022-07-06T04:18:29;93348.38;;;19.45;100.00
12475;BME280;6302;42.624;23.334;2022-07-06T04:20:56;93343.59;;;19.49;100.00
12475;BME280;6302;42.624;23.334;2022-07-06T04:23:23;93344.19;;;19.53;100.00
12475;BME280;6302;42.624;23.334;2022-07-06T04:25:50;93349.84;;;19.46;100.00
12475;BME280;6302;42.624;23.334;2022-07-06T04:28:18;93314.56;;;19.26;100.00
12475;BME280;6302;42.624;23.334;2022-07-06T04:30:45;93342.72;;;19.52;100.00
12475;BME280;6302;42.624;23.334;2022-07-06T04:33:11;93351.66;;;19.58;100.00
12475;BME280;6302;42.624;23.334;2022-07-06T04:35:38;93352.28;;;19.62;100.00
12475;BME280;6302;42.624;23.334;2022-07-06T04:38:05;93356.44;;;19.63;100.00
12475;BME280;6302;42.624;23.334;2022-07-06T04:40:32;93351.69;;;19.76;100.00
12475;BME280;6302;42.624;23.334;2022-07-06T04:42:59;93355.28;;;19.82;100.00
12475;BME280;6302;42.624;23.334;2022-07-06T04:45:27;93344.97;;;19.72;100.00
12475;BME280;6302;42.624;23.334;2022-07-06T04:47:54;93368.88;;;19.70;100.00
12475;BME280;6302;42.624;23.334;2022-07-06T04:50:21;93360.03;;;19.69;100.00
12475;BME280;6302;42.624;23.334;2022-07-06T04:52:47;93350.03;;;19.70;100.00
12475;BME280;6302;42.624;23.334;2022-07-06T04:55:14;93352.56;;;19.64;100.00
12475;BME280;6302;42.624;23.334;2022-07-06T04:57:41;93333.81;;;19.24;100.00
12475;BME280;6302;42.624;23.334;2022-07-06T05:00:09;93389.38;;;19.27;100.00
12475;BME280;6302;42.624;23.334;2022-07-06T05:02:37;93399.19;;;19.21;100.00
12475;BME280;6302;42.624;23.334;2022-07-06T05:05:05;93405.22;;;18.95;100.00
12475;BME280;6302;42.624;23.334;2022-07-06T05:07:32;93396.38;;;18.85;100.00
12475;BME280;6302;42.624;23.334;2022-07-06T05:09:59;93395.13;;;18.77;100.00
12475;BME280;6302;42.624;23.334;2022-07-06T05:12:26;93394.72;;;18.78;100.00
12475;BME280;6302;42.624;23.334;2022-07-06T05:14:53;93395.91;;;18.77;100.00
12475;BME280;6302;42.624;23.334;2022-07-06T05:17:19;93396.69;;;18.87;100.00
12475;BME280;6302;42.624;23.334;2022-07-06T05:19:48;93404.53;;;19.03;100.00
12475;BME280;6302;42.624;23.334;2022-07-06T05:22:14;93206.06;;;17.68;100.00
12475;BME280;6302;42.624;23.334;2022-07-06T05:24:41;93411.28;;;19.26;100.00
12475;BME280;6302;42.624;23.334;2022-07-06T05:27:08;93421.09;;;19.51;100.00
12475;BME280;6302;42.624;23.334;2022-07-06T05:29:35;93420.25;;;19.72;100.00
12475;BME280;6302;42.624;23.334;2022-07-06T05:32:02;93319.94;;;19.17;100.00
12475;BME280;6302;42.624;23.334;2022-07-06T05:34:29;93425.94;;;19.92;100.00
12475;BME280;6302;42.624;23.334;2022-07-06T05:36:57;93389.28;;;19.58;100.00
12475;BME280;6302;42.624;23.334;2022-07-06T05:39:24;93427.72;;;19.95;100.00
12475;BME280;6302;42.624;23.334;2022-07-06T05:41:50;93431.47;;;20.16;100.00
12475;BME280;6302;42.624;23.334;2022-07-06T05:44:17;93438.97;;;20.11;100.00
12475;BME280;6302;42.624;23.334;2022-07-06T05:46:44;93441.06;;;20.26;100.00
12475;BME280;6302;42.624;23.334;2022-07-06T05:49:11;93440.75;;;20.42;100.00
12475;BME280;6302;42.624;23.334;2022-07-06T05:51:54;93443.16;;;20.31;100.00
12475;BME280;6302;42.624;23.334;2022-07-06T05:54:23;93400.09;;;20.22;100.00
12475;BME280;6302;42.624;23.334;2022-07-06T05:56:49;93447.47;;;20.55;100.00
12475;BME280;6302;42.624;23.334;2022-07-06T05:59:16;93428.78;;;20.16;100.00
12475;BME280;6302;42.624;23.334;2022-07-06T06:01:43;93438.94;;;20.21;100.00
12475;BME280;6302;42.624;23.334;2022-07-06T06:04:10;93423.38;;;19.97;100.00
12475;BME280;6302;42.624;23.334;2022-07-06T06:06:36;93441.91;;;19.86;100.00
12475;BME280;6302;42.624;23.334;2022-07-06T06:09:03;93439.84;;;19.99;100.00
12475;BME280;6302;42.624;23.334;2022-07-06T06:11:31;93443.00;;;20.16;100.00
12475;BME280;6302;42.624;23.334;2022-07-06T06:13:58;93442.72;;;20.23;100.00
12475;BME280;6302;42.624;23.334;2022-07-06T06:16:25;93437.75;;;20.22;100.00
12475;BME280;6302;42.624;23.334;2022-07-06T06:18:51;93435.38;;;20.15;100.00
12475;BME280;6302;42.624;23.334;2022-07-06T06:21:18;93433.41;;;20.06;100.00
12475;BME280;6302;42.624;23.334;2022-07-06T06:23:45;93431.75;;;20.18;100.00
12475;BME280;6302;42.624;23.334;2022-07-06T06:26:12;93432.97;;;20.17;100.00
12475;BME280;6302;42.624;23.334;2022-07-06T06:28:40;93384.53;;;19.80;100.00
12475;BME280;6302;42.624;23.334;2022-07-06T06:31:08;93394.09;;;19.90;100.00
12475;BME280;6302;42.624;23.334;2022-07-06T06:33:34;93432.25;;;20.25;100.00
12475;BME280;6302;42.624;23.334;2022-07-06T06:36:01;93435.50;;;20.11;100.00
12475;BME280;6302;42.624;23.334;2022-07-06T06:38:28;93418.91;;;20.03;100.00
12475;BME280;6302;42.624;23.334;2022-07-06T06:40:55;93433.13;;;20.13;100.00
12475;BME280;6302;42.624;23.334;2022-07-06T06:43:23;93427.72;;;20.13;100.00
12475;BME280;6302;42.624;23.334;2022-07-06T06:45:51;93424.75;;;20.11;100.00
12475;BME280;6302;42.624;23.334;2022-07-06T06:48:18;93430.44;;;20.04;100.00
12475;BME280;6302;42.624;23.334;2022-07-06T06:50:45;93428.47;;;19.95;100.00
12475;BME280;6302;42.624;23.334;2022-07-06T06:53:12;93427.88;;;20.00;100.00
12475;BME280;6302;42.624;23.334;2022-07-06T06:55:39;93429.53;;;19.98;100.00
12475;BME280;6302;42.624;23.334;2022-07-06T06:58:06;93427.28;;;20.05;100.00
12475;BME280;6302;42.624;23.334;2022-07-06T07:00:33;93408.31;;;20.18;100.00
12475;BME280;6302;42.624;23.334;2022-07-06T07:03:01;93411.75;;;20.37;100.00
12475;BME280;6302;42.624;23.334;2022-07-06T07:05:27;93426.09;;;20.61;100.00
12475;BME280;6302;42.624;23.334;2022-07-06T07:07:54;93422.78;;;20.66;100.00
12475;BME280;6302;42.624;23.334;2022-07-06T07:10:24;93433.53;;;20.75;100.00
12475;BME280;6302;42.624;23.334;2022-07-06T07:12:51;93432.34;;;20.76;100.00
12475;BME280;6302;42.624;23.334;2022-07-06T07:15:18;93428.88;;;20.75;100.00
12475;BME280;6302;42.624;23.334;2022-07-06T07:17:45;93434.88;;;20.70;100.00
12475;BME280;6302;42.624;23.334;2022-07-06T07:20:13;93390.78;;;20.50;100.00
12475;BME280;6302;42.624;23.334;2022-07-06T07:22:40;93434.13;;;20.70;100.00
12475;BME280;6302;42.624;23.334;2022-07-06T07:25:07;93424.97;;;20.76;100.00
12475;BME280;6302;42.624;23.334;2022-07-06T07:27:34;93428.72;;;20.79;100.00
12475;BME280;6302;42.624;23.334;2022-07-06T07:30:01;93435.59;;;20.80;100.00
12475;BME280;6302;42.624;23.334;2022-07-06T07:32:29;93380.06;;;20.32;100.00
12475;BME280;6302;42.624;23.334;2022-07-06T07:34:55;93437.13;;;20.72;100.00
12475;BME280;6302;42.624;23.334;2022-07-06T07:37:23;93432.34;;;20.67;100.00
12475;BME280;6302;42.624;23.334;2022-07-06T07:39:50;93431.72;;;20.72;100.00
12475;BME280;6302;42.624;23.334;2022-07-06T07:42:17;93426.81;;;20.70;100.00
12475;BME280;6302;42.624;23.334;2022-07-06T07:44:44;93426.63;;;20.74;100.00
12475;BME280;6302;42.624;23.334;2022-07-06T07:47:11;93430.38;;;20.76;100.00
12475;BME280;6302;42.624;23.334;2022-07-06T07:49:37;93433.97;;;20.83;100.00
12475;BME280;6302;42.624;23.334;2022-07-06T07:52:05;93424.28;;;20.58;100.00
12475;BME280;6302;42.624;23.334;2022-07-06T07:54:33;93424.22;;;20.85;100.00
12475;BME280;6302;42.624;23.334;2022-07-06T07:57:00;93394.63;;;20.76;100.00
12475;BME280;6302;42.624;23.334;2022-07-06T07:59:27;93419.34;;;21.16;100.00
12475;BME280;6302;42.624;23.334;2022-07-06T08:01:54;93413.59;;;21.32;100.00
12475;BME280;6302;42.624;23.334;2022-07-06T08:04:21;93420.50;;;21.24;100.00
12475;BME280;6302;42.624;23.334;2022-07-06T08:06:48;93415.13;;;21.57;100.00
12475;BME280;6302;42.624;23.334;2022-07-06T08:09:15;93419.81;;;21.71;100.00
12475;BME280;6302;42.624;23.334;2022-07-06T08:11:43;93417.47;;;21.88;100.00
12475;BME280;6302;42.624;23.334;2022-07-06T08:14:10;93428.00;;;22.10;100.00
12475;BME280;6302;42.624;23.334;2022-07-06T08:16:39;93422.63;;;22.24;100.00
12475;BME280;6302;42.624;23.334;2022-07-06T08:19:06;93429.25;;;22.38;100.00
12475;BME280;6302;42.624;23.334;2022-07-06T08:21:33;93416.13;;;22.45;100.00
12475;BME280;6302;42.624;23.334;2022-07-06T08:23:59;93428.44;;;22.46;100.00
12475;BME280;6302;42.624;23.334;2022-07-06T08:26:27;93431.47;;;22.39;100.00
12475;BME280;6302;42.624;23.334;2022-07-06T08:28:55;93429.78;;;22.27;100.00
12475;BME280;6302;42.624;23.334;2022-07-06T08:31:22;93422.63;;;22.24;100.00
12475;BME280;6302;42.624;23.334;2022-07-06T08:33:49;93418.41;;;22.23;100.00
12475;BME280;6302;42.624;23.334;2022-07-06T08:36:18;93426.28;;;22.12;100.00
12475;BME280;6302;42.624;23.334;2022-07-06T08:38:45;93420.72;;;22.16;100.00
12475;BME280;6302;42.624;23.334;2022-07-06T08:41:13;93431.31;;;22.05;100.00
12475;BME280;6302;42.624;23.334;2022-07-06T08:43:41;93411.16;;;21.91;100.00
12475;BME280;6302;42.624;23.334;2022-07-06T08:46:09;93416.81;;;22.02;100.00
12475;BME280;6302;42.624;23.334;2022-07-06T08:48:40;93413.09;;;22.14;100.00
12475;BME280;6302;42.624;23.334;2022-07-06T08:51:07;93425.88;;;22.28;100.00
12475;BME280;6302;42.624;23.334;2022-07-06T08:53:34;93424.59;;;22.38;100.00
12475;BME280;6302;42.624;23.334;2022-07-06T08:56:01;93424.88;;;22.40;100.00
12475;BME280;6302;42.624;23.334;2022-07-06T08:58:28;93409.22;;;22.30;100.00
12475;BME280;6302;42.624;23.334;2022-07-06T09:00:55;93420.59;;;22.48;100.00
12475;BME280;6302;42.624;23.334;2022-07-06T09:03:24;93407.66;;;22.52;100.00
12475;BME280;6302;42.624;23.334;2022-07-06T09:05:52;93424.19;;;22.84;100.00
12475;BME280;6302;42.624;23.334;2022-07-06T09:08:21;93421.94;;;22.97;100.00
12475;BME280;6302;42.624;23.334;2022-07-06T09:10:48;93419.22;;;23.11;100.00
12475;BME280;6302;42.624;23.334;2022-07-06T09:13:15;93426.63;;;23.46;100.00
12475;BME280;6302;42.624;23.334;2022-07-06T09:15:42;93426.50;;;23.69;100.00
12475;BME280;6302;42.624;23.334;2022-07-06T09:18:09;93426.50;;;23.69;100.00
12475;BME280;6302;42.624;23.334;2022-07-06T09:20:37;93425.16;;;23.79;100.00
12475;BME280;6302;42.624;23.334;2022-07-06T09:23:05;93422.00;;;23.66;100.00
12475;BME280;6302;42.624;23.334;2022-07-06T09:25:32;93422.16;;;23.77;100.00
12475;BME280;6302;42.624;23.334;2022-07-06T09:28:01;93430.66;;;23.70;100.00
12475;BME280;6302;42.624;23.334;2022-07-06T09:30:30;93428.72;;;23.71;100.00
12475;BME280;6302;42.624;23.334;2022-07-06T09:32:58;93432.69;;;23.55;100.00
12475;BME280;6302;42.624;23.334;2022-07-06T09:35:26;93422.13;;;23.08;100.00
12475;BME280;6302;42.624;23.334;2022-07-06T09:38:05;93424.31;;;23.24;100.00
12475;BME280;6302;42.624;23.334;2022-07-06T09:40:34;93383.16;;;23.00;100.00
12475;BME280;6302;42.624;23.334;2022-07-06T09:43:11;93313.41;;;22.69;100.00
12475;BME280;6302;42.624;23.334;2022-07-06T09:45:40;93415.19;;;23.71;100.00
12475;BME280;6302;42.624;23.334;2022-07-06T09:48:09;93409.91;;;23.62;100.00
12475;BME280;6302;42.624;23.334;2022-07-06T09:50:40;93411.31;;;23.57;100.00
12475;BME280;6302;42.624;23.334;2022-07-06T09:53:09;93362.75;;;23.48;100.00
12475;BME280;6302;42.624;23.334;2022-07-06T09:55:36;93405.53;;;23.84;100.00
12475;BME280;6302;42.624;23.334;2022-07-06T09:58:03;93403.56;;;23.65;100.00
12475;BME280;6302;42.624;23.334;2022-07-06T10:00:30;93404.28;;;23.45;100.00
12475;BME280;6302;42.624;23.334;2022-07-06T10:02:57;93407.13;;;23.56;100.00
12475;BME280;6302;42.624;23.334;2022-07-06T10:05:25;93399.84;;;23.82;100.00
12475;BME280;6302;42.624;23.334;2022-07-06T10:07:56;93393.88;;;23.78;100.00
12475;BME280;6302;42.624;23.334;2022-07-06T10:10:26;93365.38;;;23.43;100.00
12475;BME280;6302;42.624;23.334;2022-07-06T10:12:55;93401.31;;;23.63;100.00
12475;BME280;6302;42.624;23.334;2022-07-06T10:15:22;93399.88;;;23.68;100.00
12475;BME280;6302;42.624;23.334;2022-07-06T10:17:50;93411.31;;;23.57;100.00
12475;BME280;6302;42.624;23.334;2022-07-06T10:20:17;93390.75;;;23.45;100.00
12475;BME280;6302;42.624;23.334;2022-07-06T10:22:45;93399.91;;;23.33;100.00
12475;BME280;6302;42.624;23.334;2022-07-06T10:25:12;93379.72;;;23.34;100.00
12475;BME280;6302;42.624;23.334;2022-07-06T10:27:42;93398.19;;;23.50;100.00
12475;BME280;6302;42.624;23.334;2022-07-06T10:30:10;93384.28;;;23.77;100.00
12475;BME280;6302;42.624;23.334;2022-07-06T10:32:38;93379.47;;;23.87;100.00
12475;BME280;6302;42.624;23.334;2022-07-06T10:35:07;93384.28;;;23.77;100.00
12475;BME280;6302;42.624;23.334;2022-07-06T10:37:35;93386.84;;;23.86;100.00
12475;BME280;6302;42.624;23.334;2022-07-06T10:40:02;93368.09;;;24.03;100.00
12475;BME280;6302;42.624;23.334;2022-07-06T10:42:49;93372.72;;;24.43;100.00
12475;BME280;6302;42.624;23.334;2022-07-06T10:45:50;93383.59;;;24.23;100.00
12475;BME280;6302;42.624;23.334;2022-07-06T10:48:17;93349.06;;;23.98;100.00
12475;BME280;6302;42.624;23.334;2022-07-06T10:50:47;93377.22;;;24.06;100.00
12475;BME280;6302;42.624;23.334;2022-07-06T10:53:15;93376.56;;;24.11;100.00
12475;BME280;6302;42.624;23.334;2022-07-06T10:55:44;93372.22;;;24.19;100.00
12475;BME280;6302;42.624;23.334;2022-07-06T10:58:14;93372.91;;;23.93;100.00
12475;BME280;6302;42.624;23.334;2022-07-06T11:00:51;93381.03;;;24.14;100.00
12475;BME280;6302;42.624;23.334;2022-07-06T11:03:35;93380.34;;;24.44;100.00
12475;BME280;6302;42.624;23.334;2022-07-06T11:06:05;93383.44;;;24.57;100.00
12475;BME280;6302;42.624;23.334;2022-07-06T11:08:52;93378.34;;;24.65;100.00
12475;BME280;6302;42.624;23.334;2022-07-06T11:11:22;93375.59;;;24.34;100.00
12475;BME280;6302;42.624;23.334;2022-07-06T11:13:56;93378.84;;;24.18;100.00
12475;BME280;6302;42.624;23.334;2022-07-06T11:16:24;93375.03;;;24.30;100.00
12475;BME280;6302;42.624;23.334;2022-07-06T11:19:03;93376.31;;;24.34;100.00
12475;BME280;6302;42.624;23.334;2022-07-06T11:21:36;93378.13;;;24.43;100.00
12475;BME280;6302;42.624;23.334;2022-07-06T11:24:04;93376.84;;;24.64;100.00
12475;BME280;6302;42.624;23.334;2022-07-06T11:26:31;93362.84;;;24.66;100.00
12475;BME280;6302;42.624;23.334;2022-07-06T11:29:03;93366.56;;;24.68;100.00
12475;BME280;6302;42.624;23.334;2022-07-06T11:31:33;93371.88;;;24.57;100.00
12475;BME280;6302;42.624;23.334;2022-07-06T11:34:01;93367.13;;;24.52;100.00
12475;BME280;6302;42.624;23.334;2022-07-06T11:36:28;93279.44;;;23.98;100.00
12475;BME280;6302;42.624;23.334;2022-07-06T11:38:55;93352.13;;;24.51;100.00
12475;BME280;6302;42.624;23.334;2022-07-06T11:41:21;93364.69;;;24.80;100.00
12475;BME280;6302;42.624;23.334;2022-07-06T11:43:48;93353.31;;;25.07;100.00
12475;BME280;6302;42.624;23.334;2022-07-06T11:46:22;93359.03;;;25.14;100.00
12475;BME280;6302;42.624;23.334;2022-07-06T11:48:51;93322.34;;;24.82;100.00
12475;BME280;6302;42.624;23.334;2022-07-06T11:51:18;93357.50;;;25.02;100.00
12475;BME280;6302;42.624;23.334;2022-07-06T11:53:46;93348.00;;;25.18;100.00
12475;BME280;6302;42.624;23.334;2022-07-06T11:56:14;93345.28;;;25.23;100.00
12475;BME280;6302;42.624;23.334;2022-07-06T11:58:42;93346.84;;;25.36;100.00
12475;BME280;6302;42.624;23.334;2022-07-06T12:01:13;93340.31;;;25.16;100.00
12475;BME280;6302;42.624;23.334;2022-07-06T12:03:41;93313.19;;;25.16;100.00
12475;BME280;6302;42.624;23.334;2022-07-06T12:06:17;93328.28;;;25.23;100.00
12475;BME280;6302;42.624;23.334;2022-07-06T12:08:46;93349.53;;;25.30;100.00
12475;BME280;6302;42.624;23.334;2022-07-06T12:11:23;93342.63;;;24.92;100.00
12475;BME280;6302;42.624;23.334;2022-07-06T12:13:50;93337.16;;;24.87;100.00
12475;BME280;6302;42.624;23.334;2022-07-06T12:16:18;93343.03;;;24.80;100.00
12475;BME280;6302;42.624;23.334;2022-07-06T12:18:48;93340.50;;;24.76;100.00
12475;BME280;6302;42.624;23.334;2022-07-06T12:21:16;93339.84;;;24.81;100.00
12475;BME280;6302;42.624;23.334;2022-07-06T12:23:45;93342.22;;;24.74;100.00
12475;BME280;6302;42.624;23.334;2022-07-06T12:26:13;93312.03;;;24.61;100.00
12475;BME280;6302;42.624;23.334;2022-07-06T12:28:41;93343.69;;;25.00;100.00
12475;BME280;6302;42.624;23.334;2022-07-06T12:31:08;93341.38;;;24.88;100.00
12475;BME280;6302;42.624;23.334;2022-07-06T12:33:35;93308.81;;;24.56;100.00
12475;BME280;6302;42.624;23.334;2022-07-06T12:36:11;93323.25;;;24.74;100.00
12475;BME280;6302;42.624;23.334;2022-07-06T12:38:44;93331.13;;;25.03;100.00
12475;BME280;6302;42.624;23.334;2022-07-06T12:41:30;93332.25;;;25.28;100.00
12475;BME280;6302;42.624;23.334;2022-07-06T12:44:04;93337.00;;;25.01;100.00
12475;BME280;6302;42.624;23.334;2022-07-06T12:46:33;93329.56;;;24.91;100.00
12475;BME280;6302;42.624;23.334;2022-07-06T12:49:01;93308.03;;;24.82;100.00
12475;BME280;6302;42.624;23.334;2022-07-06T12:51:48;93331.88;;;25.09;100.00
12475;BME280;6302;42.624;23.334;2022-07-06T12:54:16;93325.91;;;24.99;100.00